sensor_id;sensor_type;location;lat;lon;timestamp;P1;durP1;ratioP1;P2;durP2;ratioP2
43327;SDS011;28923;45.412;10.852;2023-11-22T05:03:29;0.90;;;0.90;;
43327;SDS011;28923;45.412;10.852;2023-11-22T05:05:54;0.75;;;0.70;;
43327;SDS011;28923;45.412;10.852;2023-11-22T05:08:19;0.70;;;0.70;;
43327;SDS011;28923;45.412;10.852;2023-11-22T05:10:45;1.10;;;0.90;;
43327;SDS011;28923;45.412;10.852;2023-11-22T05:13:10;1.05;;;0.80;;
43327;SDS011;28923;45.412;10.852;2023-11-22T05:15:36;1.23;;;0.60;;
43327;SDS011;28923;45.412;10.852;2023-11-22T05:18:01;0.70;;;0.60;;
43327;SDS011;28923;45.412;10.852;2023-11-22T05:20:27;0.70;;;0.70;;
43327;SDS011;28923;45.412;10.852;2023-11-22T05:22:52;0.93;;;0.85;;
43327;SDS011;28923;45.412;10.852;2023-11-22T05:25:18;0.50;;;0.50;;
43327;SDS011;28923;45.412;10.852;2023-11-22T05:27:43;0.80;;;0.70;;
43327;SDS011;28923;45.412;10.852;2023-11-22T05:30:09;0.65;;;0.65;;
43327;SDS011;28923;45.412;10.852;2023-11-22T05:32:36;0.90;;;0.73;;
43327;SDS011;28923;45.412;10.852;2023-11-22T05:35:01;0.95;;;0.88;;
43327;SDS011;28923;45.412;10.852;2023-11-22T05:37:26;0.77;;;0.77;;
43327;SDS011;28923;45.412;10.852;2023-11-22T05:39:52;1.13;;;0.73;;
43327;SDS011;28923;45.412;10.852;2023-11-22T05:42:18;0.60;;;0.60;;
43327;SDS011;28923;45.412;10.852;2023-11-22T05:44:43;0.70;;;0.70;;
43327;SDS011;28923;45.412;10.852;2023-11-22T05:47:09;0.80;;;0.75;;
43327;SDS011;28923;45.412;10.852;2023-11-22T05:49:34;0.60;;;0.60;;
43327;SDS011;28923;45.412;10.852;2023-11-22T05:52:00;1.15;;;0.73;;
43327;SDS011;28923;45.412;10.852;2023-11-22T05:54:25;0.60;;;0.60;;
43327;SDS011;28923;45.412;10.852;2023-11-22T05:56:51;0.70;;;0.70;;
43327;SDS011;28923;45.412;10.852;2023-11-22T05:59:17;3.50;;;0.80;;
43327;SDS011;28923;45.412;10.852;2023-11-22T06:01:42;3.15;;;0.90;;
43327;SDS011;28923;45.412;10.852;2023-11-22T06:04:07;1.80;;;1.15;;
43327;SDS011;28923;45.412;10.852;2023-11-22T06:06:35;2.45;;;0.98;;
43327;SDS011;28923;45.412;10.852;2023-11-22T06:09:00;3.45;;;0.95;;
43327;SDS011;28923;45.412;10.852;2023-11-22T06:11:25;3.40;;;1.25;;
43327;SDS011;28923;45.412;10.852;2023-11-22T06:13:51;2.92;;;0.90;;
43327;SDS011;28923;45.412;10.852;2023-11-22T06:16:17;1.83;;;0.80;;
43327;SDS011;28923;45.412;10.852;2023-11-22T06:18:42;3.50;;;1.13;;
43327;SDS011;28923;45.412;10.852;2023-11-22T06:21:09;2.60;;;0.88;;
43327;SDS011;28923;45.412;10.852;2023-11-22T06:23:35;2.85;;;0.80;;
43327;SDS011;28923;45.412;10.852;2023-11-22T06:26:00;1.48;;;0.80;;
43327;SDS011;28923;45.412;10.852;2023-11-22T06:28:26;2.33;;;1.00;;
43327;SDS011;28923;45.412;10.852;2023-11-22T06:30:52;2.83;;;0.95;;
43327;SDS011;28923;45.412;10.852;2023-11-22T06:33:18;1.33;;;0.63;;
43327;SDS011;28923;45.412;10.852;2023-11-22T06:35:43;1.02;;;0.80;;
43327;SDS011;28923;45.412;10.852;2023-11-22T06:38:09;3.15;;;1.25;;
43327;SDS011;28923;45.412;10.852;2023-11-22T06:40:34;6.22;;;1.10;;
43327;SDS011;28923;45.412;10.852;2023-11-22T06:43:00;1.88;;;1.20;;
43327;SDS011;28923;45.412;10.852;2023-11-22T06:45:25;2.08;;;1.10;;
43327;SDS011;28923;45.412;10.852;2023-11-22T06:47:51;5.38;;;1.10;;
43327;SDS011;28923;45.412;10.852;2023-11-22T06:50:16;8.13;;;1.40;;
43327;SDS011;28923;45.412;10.852;2023-11-22T06:52:42;1.98;;;1.10;;
43327;SDS011;28923;45.412;10.852;2023-11-22T06:55:08;2.15;;;1.10;;
43327;SDS011;28923;45.412;10.852;2023-11-22T06:57:34;3.55;;;1.42;;
43327;SDS011;28923;45.412;10.852;2023-11-22T07:00:00;1.92;;;0.90;;
43327;SDS011;28923;45.412;10.852;2023-11-22T07:02:32;1.95;;;1.10;;
43327;SDS011;28923;45.412;10.852;2023-11-22T07:04:57;2.70;;;1.30;;
43327;SDS011;28923;45.412;10.852;2023-11-22T07:07:26;1.75;;;1.20;;
43327;SDS011;28923;45.412;10.852;2023-11-22T07:09:51;3.33;;;1.20;;
43327;SDS011;28923;45.412;10.852;2023-11-22T07:12:16;3.67;;;1.17;;
43327;SDS011;28923;45.412;10.852;2023-11-22T07:14:42;3.60;;;1.40;;
43327;SDS011;28923;45.412;10.852;2023-11-22T07:17:08;11.68;;;1.20;;
43327;SDS011;28923;45.412;10.852;2023-11-22T07:19:34;3.28;;;1.30;;
43327;SDS011;28923;45.412;10.852;2023-11-22T07:22:06;4.60;;;1.42;;
43327;SDS011;28923;45.412;10.852;2023-11-22T07:24:43;4.95;;;1.35;;
43327;SDS011;28923;45.412;10.852;2023-11-22T07:27:12;6.22;;;1.90;;
43327;SDS011;28923;45.412;10.852;2023-11-22T07:29:40;3.50;;;1.20;;
43327;SDS011;28923;45.412;10.852;2023-11-22T07:32:06;8.02;;;1.60;;
43327;SDS011;28923;45.412;10.852;2023-11-22T07:34:33;6.85;;;1.40;;
43327;SDS011;28923;45.412;10.852;2023-11-22T07:36:59;3.80;;;1.50;;
43327;SDS011;28923;45.412;10.852;2023-11-22T07:39:24;4.10;;;1.27;;
43327;SDS011;28923;45.412;10.852;2023-11-22T07:41:53;3.33;;;1.45;;
43327;SDS011;28923;45.412;10.852;2023-11-22T07:44:18;4.82;;;1.90;;
43327;SDS011;28923;45.412;10.852;2023-11-22T07:46:44;5.80;;;1.40;;
43327;SDS011;28923;45.412;10.852;2023-11-22T07:49:10;4.45;;;1.55;;
43327;SDS011;28923;45.412;10.852;2023-11-22T07:51:35;5.35;;;1.30;;
43327;SDS011;28923;45.412;10.852;2023-11-22T07:54:02;6.38;;;1.73;;
43327;SDS011;28923;45.412;10.852;2023-11-22T07:56:27;4.47;;;1.52;;
43327;SDS011;28923;45.412;10.852;2023-11-22T07:58:54;3.38;;;1.27;;
43327;SDS011;28923;45.412;10.852;2023-11-22T08:01:20;3.80;;;1.20;;
43327;SDS011;28923;45.412;10.852;2023-11-22T08:03:45;2.95;;;1.30;;
43327;SDS011;28923;45.412;10.852;2023-11-22T08:06:11;2.63;;;1.40;;
43327;SDS011;28923;45.412;10.852;2023-11-22T08:08:36;3.20;;;1.60;;
43327;SDS011;28923;45.412;10.852;2023-11-22T08:11:05;4.40;;;1.10;;
43327;SDS011;28923;45.412;10.852;2023-11-22T08:13:30;2.35;;;1.38;;
43327;SDS011;28923;45.412;10.852;2023-11-22T08:15:56;4.65;;;1.58;;
43327;SDS011;28923;45.412;10.852;2023-11-22T08:18:21;3.20;;;1.20;;
43327;SDS011;28923;45.412;10.852;2023-11-22T08:20:47;2.20;;;1.23;;
43327;SDS011;28923;45.412;10.852;2023-11-22T08:23:12;1.85;;;1.10;;
43327;SDS011;28923;45.412;10.852;2023-11-22T08:25:40;2.85;;;1.02;;
43327;SDS011;28923;45.412;10.852;2023-11-22T08:28:05;2.05;;;1.23;;
43327;SDS011;28923;45.412;10.852;2023-11-22T08:30:33;3.95;;;1.50;;
43327;SDS011;28923;45.412;10.852;2023-11-22T08:33:01;2.13;;;1.20;;
43327;SDS011;28923;45.412;10.852;2023-11-22T08:35:27;2.15;;;1.30;;
43327;SDS011;28923;45.412;10.852;2023-11-22T08:37:53;3.60;;;1.38;;
43327;SDS011;28923;45.412;10.852;2023-11-22T08:40:18;2.22;;;0.93;;
43327;SDS011;28923;45.412;10.852;2023-11-22T08:42:47;3.15;;;1.27;;
43327;SDS011;28923;45.412;10.852;2023-11-22T08:45:13;3.33;;;1.30;;
43327;SDS011;28923;45.412;10.852;2023-11-22T08:47:41;5.63;;;1.45;;
43327;SDS011;28923;45.412;10.852;2023-11-22T08:50:09;3.53;;;1.15;;
43327;SDS011;28923;45.412;10.852;2023-11-22T08:52:38;3.45;;;1.33;;
43327;SDS011;28923;45.412;10.852;2023-11-22T08:55:05;3.30;;;1.50;;
43327;SDS011;28923;45.412;10.852;2023-11-22T08:57:35;1.40;;;1.30;;
43327;SDS011;28923;45.412;10.852;2023-11-22T09:00:01;1.67;;;1.20;;
43327;SDS011;28923;45.412;10.852;2023-11-22T09:02:32;2.10;;;1.17;;
43327;SDS011;28923;45.412;10.852;2023-11-22T09:04:58;2.67;;;1.20;;
43327;SDS011;28923;45.412;10.852;2023-11-22T09:07:23;1.80;;;1.42;;
43327;SDS011;28923;45.412;10.852;2023-11-22T09:09:49;4.00;;;1.25;;
43327;SDS011;28923;45.412;10.852;2023-11-22T09:12:17;2.28;;;1.15;;
43327;SDS011;28923;45.412;10.852;2023-11-22T09:14:44;2.47;;;1.23;;
43327;SDS011;28923;45.412;10.852;2023-11-22T09:17:10;2.60;;;1.20;;
43327;SDS011;28923;45.412;10.852;2023-11-22T09:19:35;1.73;;;1.00;;
43327;SDS011;28923;45.412;10.852;2023-11-22T09:22:02;2.17;;;1.25;;
43327;SDS011;28923;45.412;10.852;2023-11-22T09:24:28;1.10;;;0.90;;
43327;SDS011;28923;45.412;10.852;2023-11-22T09:26:53;1.35;;;1.02;;
43327;SDS011;28923;45.412;10.852;2023-11-22T09:29:18;1.90;;;1.00;;
43327;SDS011;28923;45.412;10.852;2023-11-22T09:31:44;1.48;;;1.00;;
43327;SDS011;28923;45.412;10.852;2023-11-22T09:34:12;2.33;;;0.90;;
43327;SDS011;28923;45.412;10.852;2023-11-22T09:36:38;1.00;;;0.90;;
43327;SDS011;28923;45.412;10.852;2023-11-22T09:39:03;1.05;;;0.80;;
43327;SDS011;28923;45.412;10.852;2023-11-22T09:41:33;1.92;;;1.02;;
43327;SDS011;28923;45.412;10.852;2023-11-22T09:43:59;1.52;;;0.90;;
43327;SDS011;28923;45.412;10.852;2023-11-22T09:46:25;1.30;;;0.88;;
43327;SDS011;28923;45.412;10.852;2023-11-22T09:48:52;1.13;;;0.90;;
43327;SDS011;28923;45.412;10.852;2023-11-22T09:51:23;1.70;;;0.90;;
43327;SDS011;28923;45.412;10.852;2023-11-22T09:56:14;3.15;;;1.15;;
43327;SDS011;28923;45.412;10.852;2023-11-22T09:58:40;0.70;;;0.60;;
43327;SDS011;28923;45.412;10.852;2023-11-22T10:01:10;0.98;;;0.73;;
43327;SDS011;28923;45.412;10.852;2023-11-22T10:03:36;1.17;;;0.73;;
43327;SDS011;28923;45.412;10.852;2023-11-22T10:06:02;1.05;;;0.95;;
43327;SDS011;28923;45.412;10.852;2023-11-22T10:08:29;1.50;;;0.93;;
43327;SDS011;28923;45.412;10.852;2023-11-22T10:10:58;1.10;;;0.80;;
43327;SDS011;28923;45.412;10.852;2023-11-22T10:13:24;1.38;;;0.52;;
43327;SDS011;28923;45.412;10.852;2023-11-22T10:15:50;1.15;;;0.77;;
43327;SDS011;28923;45.412;10.852;2023-11-22T10:18:15;0.55;;;0.55;;
43327;SDS011;28923;45.412;10.852;2023-11-22T10:20:43;0.70;;;0.70;;
43327;SDS011;28923;45.412;10.852;2023-11-22T10:23:13;0.80;;;0.60;;
43327;SDS011;28923;45.412;10.852;2023-11-22T10:28:11;1.05;;;0.82;;
43327;SDS011;28923;45.412;10.852;2023-11-22T10:30:36;3.03;;;0.70;;
43327;SDS011;28923;45.412;10.852;2023-11-22T10:33:02;0.68;;;0.60;;
43327;SDS011;28923;45.412;10.852;2023-11-22T10:35:28;1.05;;;0.60;;
43327;SDS011;28923;45.412;10.852;2023-11-22T10:37:53;0.70;;;0.57;;
43327;SDS011;28923;45.412;10.852;2023-11-22T10:40:18;0.55;;;0.52;;
43327;SDS011;28923;45.412;10.852;2023-11-22T10:42:44;0.70;;;0.60;;
43327;SDS011;28923;45.412;10.852;2023-11-22T10:45:14;1.15;;;0.77;;
43327;SDS011;28923;45.412;10.852;2023-11-22T10:47:40;0.98;;;0.55;;
43327;SDS011;28923;45.412;10.852;2023-11-22T10:50:07;1.95;;;0.52;;
43327;SDS011;28923;45.412;10.852;2023-11-22T10:52:35;1.88;;;0.65;;
43327;SDS011;28923;45.412;10.852;2023-11-22T10:55:02;0.52;;;0.50;;
43327;SDS011;28923;45.412;10.852;2023-11-22T10:57:30;0.90;;;0.70;;
43327;SDS011;28923;45.412;10.852;2023-11-22T10:59:56;0.70;;;0.60;;
43327;SDS011;28923;45.412;10.852;2023-11-22T11:02:26;2.35;;;0.70;;
43327;SDS011;28923;45.412;10.852;2023-11-22T11:04:59;1.63;;;0.70;;
43327;SDS011;28923;45.412;10.852;2023-11-22T11:07:28;0.70;;;0.57;;
43327;SDS011;28923;45.412;10.852;2023-11-22T11:09:55;1.23;;;0.60;;
43327;SDS011;28923;45.412;10.852;2023-11-22T11:12:22;1.55;;;0.60;;
43327;SDS011;28923;45.412;10.852;2023-11-22T11:14:48;1.20;;;0.57;;
43327;SDS011;28923;45.412;10.852;2023-11-22T11:17:14;0.70;;;0.60;;
43327;SDS011;28923;45.412;10.852;2023-11-22T11:19:40;1.17;;;0.47;;
43327;SDS011;28923;45.412;10.852;2023-11-22T11:22:10;1.30;;;0.55;;
43327;SDS011;28923;45.412;10.852;2023-11-22T11:24:39;0.50;;;0.50;;
43327;SDS011;28923;45.412;10.852;2023-11-22T11:27:06;1.00;;;0.55;;
43327;SDS011;28923;45.412;10.852;2023-11-22T11:29:34;0.50;;;0.50;;
43327;SDS011;28923;45.412;10.852;2023-11-22T11:32:04;0.65;;;0.60;;
43327;SDS011;28923;45.412;10.852;2023-11-22T11:34:29;0.75;;;0.50;;
43327;SDS011;28923;45.412;10.852;2023-11-22T11:36:55;1.10;;;0.52;;
43327;SDS011;28923;45.412;10.852;2023-11-22T11:39:26;0.50;;;0.50;;
43327;SDS011;28923;45.412;10.852;2023-11-22T11:42:11;0.45;;;0.40;;
43327;SDS011;28923;45.412;10.852;2023-11-22T11:44:50;0.75;;;0.55;;
43327;SDS011;28923;45.412;10.852;2023-11-22T11:47:16;0.68;;;0.40;;
43327;SDS011;28923;45.412;10.852;2023-11-22T11:49:41;1.70;;;0.45;;
43327;SDS011;28923;45.412;10.852;2023-11-22T11:52:07;0.43;;;0.43;;
43327;SDS011;28923;45.412;10.852;2023-11-22T11:54:33;2.35;;;0.55;;
43327;SDS011;28923;45.412;10.852;2023-11-22T11:56:59;0.95;;;0.50;;
43327;SDS011;28923;45.412;10.852;2023-11-22T11:59:25;0.47;;;0.47;;
43327;SDS011;28923;45.412;10.852;2023-11-22T12:01:52;1.10;;;0.50;;
43327;SDS011;28923;45.412;10.852;2023-11-22T12:04:18;0.65;;;0.40;;
43327;SDS011;28923;45.412;10.852;2023-11-22T12:06:43;0.40;;;0.40;;
43327;SDS011;28923;45.412;10.852;2023-11-22T12:09:09;0.50;;;0.50;;
43327;SDS011;28923;45.412;10.852;2023-11-22T12:11:34;0.35;;;0.35;;
43327;SDS011;28923;45.412;10.852;2023-11-22T12:13:59;1.98;;;0.35;;
43327;SDS011;28923;45.412;10.852;2023-11-22T12:16:25;0.88;;;0.50;;
43327;SDS011;28923;45.412;10.852;2023-11-22T12:18:52;0.47;;;0.47;;
43327;SDS011;28923;45.412;10.852;2023-11-22T12:21:17;1.88;;;0.85;;
43327;SDS011;28923;45.412;10.852;2023-11-22T12:23:44;0.50;;;0.40;;
43327;SDS011;28923;45.412;10.852;2023-11-22T12:26:19;0.47;;;0.38;;
43327;SDS011;28923;45.412;10.852;2023-11-22T12:28:45;0.32;;;0.30;;
43327;SDS011;28923;45.412;10.852;2023-11-22T12:31:11;1.05;;;0.40;;
43327;SDS011;28923;45.412;10.852;2023-11-22T12:33:37;0.60;;;0.40;;
43327;SDS011;28923;45.412;10.852;2023-11-22T12:36:03;2.03;;;0.40;;
43327;SDS011;28923;45.412;10.852;2023-11-22T12:38:29;1.80;;;0.40;;
43327;SDS011;28923;45.412;10.852;2023-11-22T12:40:56;0.60;;;0.43;;
43327;SDS011;28923;45.412;10.852;2023-11-22T12:43:22;0.38;;;0.38;;
43327;SDS011;28923;45.412;10.852;2023-11-22T12:45:47;0.70;;;0.50;;
43327;SDS011;28923;45.412;10.852;2023-11-22T12:48:19;0.45;;;0.40;;
43327;SDS011;28923;45.412;10.852;2023-11-22T12:50:45;0.57;;;0.30;;
43327;SDS011;28923;45.412;10.852;2023-11-22T12:53:11;0.80;;;0.60;;
43327;SDS011;28923;45.412;10.852;2023-11-22T12:55:38;0.55;;;0.40;;
43327;SDS011;28923;45.412;10.852;2023-11-22T12:58:03;0.38;;;0.30;;
43327;SDS011;28923;45.412;10.852;2023-11-22T13:00:29;0.30;;;0.30;;
43327;SDS011;28923;45.412;10.852;2023-11-22T13:02:58;0.40;;;0.40;;
43327;SDS011;28923;45.412;10.852;2023-11-22T13:05:23;0.38;;;0.38;;
43327;SDS011;28923;45.412;10.852;2023-11-22T13:07:49;0.60;;;0.40;;
43327;SDS011;28923;45.412;10.852;2023-11-22T13:10:15;0.63;;;0.50;;
43327;SDS011;28923;45.412;10.852;2023-11-22T13:12:43;0.35;;;0.35;;
43327;SDS011;28923;45.412;10.852;2023-11-22T13:15:12;0.57;;;0.45;;
43327;SDS011;28923;45.412;10.852;2023-11-22T13:17:38;0.45;;;0.30;;
43327;SDS011;28923;45.412;10.852;2023-11-22T13:20:07;0.40;;;0.30;;
43327;SDS011;28923;45.412;10.852;2023-11-22T13:22:41;0.30;;;0.30;;
43327;SDS011;28923;45.412;10.852;2023-11-22T13:25:07;0.30;;;0.30;;
43327;SDS011;28923;45.412;10.852;2023-11-22T13:27:33;0.32;;;0.32;;
43327;SDS011;28923;45.412;10.852;2023-11-22T13:30:00;0.40;;;0.40;;
43327;SDS011;28923;45.412;10.852;2023-11-22T13:32:25;0.45;;;0.30;;
43327;SDS011;28923;45.412;10.852;2023-11-22T13:34:51;0.45;;;0.38;;
43327;SDS011;28923;45.412;10.852;2023-11-22T13:37:23;0.75;;;0.30;;
43327;SDS011;28923;45.412;10.852;2023-11-22T13:39:48;0.40;;;0.32;;
43327;SDS011;28923;45.412;10.852;2023-11-22T13:42:13;0.45;;;0.43;;
43327;SDS011;28923;45.412;10.852;2023-11-22T13:44:39;0.40;;;0.40;;
43327;SDS011;28923;45.412;10.852;2023-11-22T13:47:06;0.28;;;0.28;;
43327;SDS011;28923;45.412;10.852;2023-11-22T13:49:33;0.30;;;0.30;;
43327;SDS011;28923;45.412;10.852;2023-11-22T13:51:58;0.20;;;0.20;;
43327;SDS011;28923;45.412;10.852;2023-11-22T13:54:23;0.60;;;0.32;;
43327;SDS011;28923;45.412;10.852;2023-11-22T13:56:49;0.57;;;0.50;;
43327;SDS011;28923;45.412;10.852;2023-11-22T13:59:14;0.30;;;0.28;;
43327;SDS011;28923;45.412;10.852;2023-11-22T14:01:40;0.38;;;0.30;;
43327;SDS011;28923;45.412;10.852;2023-11-22T14:04:05;0.43;;;0.30;;
43327;SDS011;28923;45.412;10.852;2023-11-22T14:06:31;0.30;;;0.30;;
43327;SDS011;28923;45.412;10.852;2023-11-22T14:08:56;0.40;;;0.30;;
43327;SDS011;28923;45.412;10.852;2023-11-22T14:11:22;0.30;;;0.30;;
43327;SDS011;28923;45.412;10.852;2023-11-22T14:13:47;0.47;;;0.40;;
43327;SDS011;28923;45.412;10.852;2023-11-22T14:16:12;0.25;;;0.25;;
43327;SDS011;28923;45.412;10.852;2023-11-22T14:18:40;0.25;;;0.25;;
43327;SDS011;28923;45.412;10.852;2023-11-22T14:21:05;0.57;;;0.30;;
43327;SDS011;28923;45.412;10.852;2023-11-22T14:23:31;0.45;;;0.32;;
43327;SDS011;28923;45.412;10.852;2023-11-22T14:25:56;0.30;;;0.30;;
43327;SDS011;28923;45.412;10.852;2023-11-22T14:28:22;0.30;;;0.30;;
43327;SDS011;28923;45.412;10.852;2023-11-22T14:30:47;0.22;;;0.22;;
43327;SDS011;28923;45.412;10.852;2023-11-22T14:33:16;0.30;;;0.30;;
43327;SDS011;28923;45.412;10.852;2023-11-22T14:35:41;0.32;;;0.28;;
43327;SDS011;28923;45.412;10.852;2023-11-22T14:38:09;0.30;;;0.30;;
43327;SDS011;28923;45.412;10.852;2023-11-22T14:40:34;0.30;;;0.20;;
43327;SDS011;28923;45.412;10.852;2023-11-22T14:43:03;0.40;;;0.30;;
43327;SDS011;28923;45.412;10.852;2023-11-22T14:45:29;0.43;;;0.35;;
43327;SDS011;28923;45.412;10.852;2023-11-22T14:47:54;0.30;;;0.30;;
43327;SDS011;28923;45.412;10.852;2023-11-22T14:50:21;0.82;;;0.50;;
43327;SDS011;28923;45.412;10.852;2023-11-22T14:52:50;0.40;;;0.40;;
43327;SDS011;28923;45.412;10.852;2023-11-22T14:55:16;0.55;;;0.28;;
43327;SDS011;28923;45.412;10.852;2023-11-22T14:57:42;0.30;;;0.30;;
43327;SDS011;28923;45.412;10.852;2023-11-22T15:00:08;0.25;;;0.22;;
43327;SDS011;28923;45.412;10.852;2023-11-22T15:02:35;0.55;;;0.25;;
43327;SDS011;28923;45.412;10.852;2023-11-22T15:05:02;0.35;;;0.32;;
43327;SDS011;28923;45.412;10.852;2023-11-22T15:07:27;0.40;;;0.30;;
43327;SDS011;28923;45.412;10.852;2023-11-22T15:09:52;0.25;;;0.25;;
43327;SDS011;28923;45.412;10.852;2023-11-22T15:12:18;0.20;;;0.20;;
43327;SDS011;28923;45.412;10.852;2023-11-22T15:14:43;0.25;;;0.25;;
43327;SDS011;28923;45.412;10.852;2023-11-22T15:17:09;0.38;;;0.38;;
43327;SDS011;28923;45.412;10.852;2023-11-22T15:19:34;0.30;;;0.30;;
43327;SDS011;28923;45.412;10.852;2023-11-22T15:22:03;0.20;;;0.20;;
43327;SDS011;28923;45.412;10.852;2023-11-22T15:24:28;0.30;;;0.30;;
43327;SDS011;28923;45.412;10.852;2023-11-22T15:26:55;0.30;;;0.30;;
43327;SDS011;28923;45.412;10.852;2023-11-22T15:29:22;0.52;;;0.20;;
43327;SDS011;28923;45.412;10.852;2023-11-22T15:31:47;0.20;;;0.20;;
43327;SDS011;28923;45.412;10.852;2023-11-22T15:34:12;0.47;;;0.47;;
43327;SDS011;28923;45.412;10.852;2023-11-22T15:36:39;0.30;;;0.30;;
43327;SDS011;28923;45.412;10.852;2023-11-22T15:39:04;0.77;;;0.30;;
43327;SDS011;28923;45.412;10.852;2023-11-22T15:41:31;0.40;;;0.40;;
43327;SDS011;28923;45.412;10.852;2023-11-22T15:43:56;0.63;;;0.50;;
43327;SDS011;28923;45.412;10.852;2023-11-22T15:46:21;0.40;;;0.40;;
43327;SDS011;28923;45.412;10.852;2023-11-22T15:48:52;0.77;;;0.40;;
43327;SDS011;28923;45.412;10.852;2023-11-22T15:51:18;0.68;;;0.52;;
43327;SDS011;28923;45.412;10.852;2023-11-22T15:53:43;0.95;;;0.52;;
43327;SDS011;28923;45.412;10.852;2023-11-22T15:56:09;0.60;;;0.38;;
43327;SDS011;28923;45.412;10.852;2023-11-22T15:58:49;0.52;;;0.47;;
43327;SDS011;28923;45.412;10.852;2023-11-22T16:01:15;0.52;;;0.40;;
43327;SDS011;28923;45.412;10.852;2023-11-22T16:03:42;0.65;;;0.50;;
43327;SDS011;28923;45.412;10.852;2023-11-22T16:06:07;0.57;;;0.50;;
43327;SDS011;28923;45.412;10.852;2023-11-22T16:08:38;1.00;;;0.40;;
43327;SDS011;28923;45.412;10.852;2023-11-22T16:11:03;0.45;;;0.40;;
43327;SDS011;28923;45.412;10.852;2023-11-22T16:13:29;0.98;;;0.30;;
43327;SDS011;28923;45.412;10.852;2023-11-22T16:15:54;0.35;;;0.30;;
43327;SDS011;28923;45.412;10.852;2023-11-22T16:18:24;0.55;;;0.47;;
43327;SDS011;28923;45.412;10.852;2023-11-22T16:20:52;0.70;;;0.45;;
43327;SDS011;28923;45.412;10.852;2023-11-22T16:23:17;0.30;;;0.30;;
43327;SDS011;28923;45.412;10.852;2023-11-22T16:25:42;0.70;;;0.43;;
43327;SDS011;28923;45.412;10.852;2023-11-22T16:28:08;0.40;;;0.32;;
43327;SDS011;28923;45.412;10.852;2023-11-22T16:30:33;0.45;;;0.45;;
43327;SDS011;28923;45.412;10.852;2023-11-22T16:32:59;0.73;;;0.65;;
43327;SDS011;28923;45.412;10.852;2023-11-22T16:35:24;0.70;;;0.60;;
43327;SDS011;28923;45.412;10.852;2023-11-22T16:37:51;0.70;;;0.70;;
43327;SDS011;28923;45.412;10.852;2023-11-22T16:40:16;0.75;;;0.63;;
43327;SDS011;28923;45.412;10.852;2023-11-22T16:42:42;0.80;;;0.80;;
43327;SDS011;28923;45.412;10.852;2023-11-22T16:45:08;0.63;;;0.63;;
43327;SDS011;28923;45.412;10.852;2023-11-22T16:47:34;0.50;;;0.50;;
43327;SDS011;28923;45.412;10.852;2023-11-22T16:49:59;0.65;;;0.60;;
43327;SDS011;28923;45.412;10.852;2023-11-22T16:52:26;0.60;;;0.60;;
43327;SDS011;28923;45.412;10.852;2023-11-22T16:54:51;0.43;;;0.40;;
43327;SDS011;28923;45.412;10.852;2023-11-22T16:57:17;1.23;;;0.70;;
43327;SDS011;28923;45.412;10.852;2023-11-22T16:59:43;0.77;;;0.50;;
43327;SDS011;28923;45.412;10.852;2023-11-22T17:02:09;0.70;;;0.52;;
43327;SDS011;28923;45.412;10.852;2023-11-22T17:04:35;0.77;;;0.57;;
43327;SDS011;28923;45.412;10.852;2023-11-22T17:07:01;0.55;;;0.50;;
43327;SDS011;28923;45.412;10.852;2023-11-22T17:09:27;0.75;;;0.73;;
43327;SDS011;28923;45.412;10.852;2023-11-22T17:11:52;1.15;;;0.82;;
43327;SDS011;28923;45.412;10.852;2023-11-22T17:14:17;1.30;;;0.82;;
43327;SDS011;28923;45.412;10.852;2023-11-22T17:16:43;1.45;;;1.00;;
43327;SDS011;28923;45.412;10.852;2023-11-22T17:19:08;2.97;;;1.25;;
43327;SDS011;28923;45.412;10.852;2023-11-22T17:21:34;1.75;;;1.30;;
43327;SDS011;28923;45.412;10.852;2023-11-22T17:23:59;1.58;;;1.20;;
43327;SDS011;28923;45.412;10.852;2023-11-22T17:26:26;3.28;;;1.30;;
43327;SDS011;28923;45.412;10.852;2023-11-22T17:28:51;3.65;;;1.60;;
43327;SDS011;28923;45.412;10.852;2023-11-22T17:31:16;3.60;;;1.63;;
43327;SDS011;28923;45.412;10.852;2023-11-22T17:33:42;6.18;;;1.92;;
43327;SDS011;28923;45.412;10.852;2023-11-22T17:36:07;3.45;;;2.00;;
43327;SDS011;28923;45.412;10.852;2023-11-22T17:38:33;3.63;;;2.10;;
43327;SDS011;28923;45.412;10.852;2023-11-22T17:40:58;3.05;;;1.90;;
43327;SDS011;28923;45.412;10.852;2023-11-22T17:43:25;8.25;;;2.30;;
43327;SDS011;28923;45.412;10.852;2023-11-22T17:45:50;1.83;;;1.60;;
43327;SDS011;28923;45.412;10.852;2023-11-22T17:48:16;3.75;;;1.90;;
43327;SDS011;28923;45.412;10.852;2023-11-22T17:50:42;4.15;;;2.13;;
43327;SDS011;28923;45.412;10.852;2023-11-22T17:53:08;4.22;;;1.95;;
43327;SDS011;28923;45.412;10.852;2023-11-22T17:55:33;3.58;;;1.98;;
43327;SDS011;28923;45.412;10.852;2023-11-22T17:57:59;2.50;;;1.63;;
43327;SDS011;28923;45.412;10.852;2023-11-22T18:00:24;3.25;;;1.60;;
43327;SDS011;28923;45.412;10.852;2023-11-22T18:02:51;3.00;;;1.98;;
43327;SDS011;28923;45.412;10.852;2023-11-22T18:05:19;2.78;;;1.90;;
43327;SDS011;28923;45.412;10.852;2023-11-22T18:07:50;3.22;;;2.00;;
43327;SDS011;28923;45.412;10.852;2023-11-22T18:10:15;1.98;;;1.45;;
43327;SDS011;28923;45.412;10.852;2023-11-22T18:12:41;3.80;;;2.17;;
43327;SDS011;28923;45.412;10.852;2023-11-22T18:15:07;4.50;;;1.63;;
43327;SDS011;28923;45.412;10.852;2023-11-22T18:17:32;4.57;;;1.67;;
43327;SDS011;28923;45.412;10.852;2023-11-22T18:19:58;3.15;;;1.60;;
43327;SDS011;28923;45.412;10.852;2023-11-22T18:22:23;3.92;;;1.55;;
43327;SDS011;28923;45.412;10.852;2023-11-22T18:24:48;3.63;;;1.90;;
43327;SDS011;28923;45.412;10.852;2023-11-22T18:27:14;3.10;;;1.77;;
43327;SDS011;28923;45.412;10.852;2023-11-22T18:29:39;4.70;;;1.95;;
43327;SDS011;28923;45.412;10.852;2023-11-22T18:32:05;3.88;;;1.90;;
43327;SDS011;28923;45.412;10.852;2023-11-22T18:34:30;3.47;;;2.22;;
43327;SDS011;28923;45.412;10.852;2023-11-22T18:36:57;3.10;;;2.00;;
43327;SDS011;28923;45.412;10.852;2023-11-22T18:39:23;2.72;;;1.90;;
43327;SDS011;28923;45.412;10.852;2023-11-22T18:41:48;4.13;;;2.05;;
43327;SDS011;28923;45.412;10.852;2023-11-22T18:44:14;5.40;;;1.80;;
43327;SDS011;28923;45.412;10.852;2023-11-22T18:46:40;3.20;;;2.10;;
43327;SDS011;28923;45.412;10.852;2023-11-22T18:49:06;2.88;;;1.85;;
43327;SDS011;28923;45.412;10.852;2023-11-22T18:51:33;2.38;;;1.55;;
43327;SDS011;28923;45.412;10.852;2023-11-22T18:53:58;3.80;;;2.00;;
43327;SDS011;28923;45.412;10.852;2023-11-22T18:56:24;2.33;;;1.83;;
43327;SDS011;28923;45.412;10.852;2023-11-22T18:58:49;4.78;;;1.90;;
43327;SDS011;28923;45.412;10.852;2023-11-22T19:01:15;2.92;;;1.77;;
43327;SDS011;28923;45.412;10.852;2023-11-22T19:03:40;2.92;;;2.00;;
43327;SDS011;28923;45.412;10.852;2023-11-22T19:06:06;2.17;;;1.70;;
43327;SDS011;28923;45.412;10.852;2023-11-22T19:08:32;3.38;;;1.98;;
43327;SDS011;28923;45.412;10.852;2023-11-22T19:10:58;3.65;;;2.40;;
43327;SDS011;28923;45.412;10.852;2023-11-22T19:13:23;3.42;;;1.80;;
43327;SDS011;28923;45.412;10.852;2023-11-22T19:15:49;3.83;;;1.92;;
43327;SDS011;28923;45.412;10.852;2023-11-22T19:18:14;4.30;;;2.17;;
43327;SDS011;28923;45.412;10.852;2023-11-22T19:20:40;3.28;;;2.15;;
43327;SDS011;28923;45.412;10.852;2023-11-22T19:23:07;4.22;;;2.13;;
43327;SDS011;28923;45.412;10.852;2023-11-22T19:25:32;4.43;;;2.03;;
43327;SDS011;28923;45.412;10.852;2023-11-22T19:28:01;2.33;;;1.90;;
43327;SDS011;28923;45.412;10.852;2023-11-22T19:30:30;3.33;;;2.10;;
43327;SDS011;28923;45.412;10.852;2023-11-22T19:32:56;2.78;;;2.13;;
43327;SDS011;28923;45.412;10.852;2023-11-22T19:35:24;2.95;;;2.10;;